createdAt,value
2019-02-15T00:00:31.230Z,73.93
2019-02-15T00:05:33.009Z,61.17
2019-02-15T00:10:34.569Z,68.10
2019-02-15T00:15:36.521Z,69.90
2019-02-15T00:20:48.945Z,70.83
2019-02-15T00:25:50.494Z,63.40
2019-02-15T00:30:52.320Z,63.87
2019-02-15T00:35:53.989Z,66.73
2019-02-15T00:40:55.697Z,74.47
2019-02-15T00:46:14.117Z,62.67
2019-02-15T00:51:17.613Z,62.70
2019-02-15T00:56:23.920Z,69.07
2019-02-15T01:01:43.440Z,72.07
2019-02-15T01:06:46.898Z,71.43
2019-02-15T01:11:50.496Z,68.80
2019-02-15T01:16:52.292Z,79.27
2019-02-15T01:21:53.986Z,70.83
2019-02-15T01:26:57.441Z,62.73
2019-02-15T01:32:08.194Z,60.97
2019-02-15T01:37:14.530Z,61.73
2019-02-15T01:42:17.994Z,66.13
2019-02-15T01:47:20.108Z,65.93
2019-02-15T01:52:21.662Z,72.43
2019-02-15T01:57:23.275Z,63.30
2019-02-15T02:02:26.729Z,68.60
2019-02-15T02:07:28.526Z,67.23
2019-02-15T02:12:30.128Z,70.07
2019-02-15T02:17:31.874Z,76.17
2019-02-15T02:22:33.433Z,59.00
2019-02-15T02:27:35.054Z,72.80
2019-02-15T02:32:36.626Z,76.00
2019-02-15T02:37:38.289Z,66.30
2019-02-15T02:42:39.864Z,73.73
2019-02-15T02:47:41.463Z,63.87
2019-02-15T02:52:45.997Z,60.67
2019-02-15T02:57:47.649Z,65.53
2019-02-15T03:02:49.206Z,70.30
2019-02-15T03:07:52.291Z,69.87
2019-02-15T03:12:53.945Z,65.30
2019-02-15T03:17:55.578Z,58.27
2019-02-15T03:22:57.133Z,58.47
2019-02-15T03:27:58.755Z,68.67
2019-02-15T03:33:00.400Z,65.10
2019-02-15T03:38:07.175Z,65.53
2019-02-15T03:43:08.930Z,68.13
2019-02-15T03:48:10.488Z,63.90
2019-02-15T03:53:12.050Z,66.77
2019-02-15T03:58:13.751Z,67.00
2019-02-15T04:03:15.511Z,58.80
2019-02-15T04:08:17.059Z,59.57
2019-02-15T04:13:18.773Z,60.13
2019-02-15T04:18:23.426Z,53.93
2019-02-15T04:23:24.988Z,52.67
2019-02-15T04:28:26.590Z,43.53
2019-02-15T04:33:28.190Z,45.37
2019-02-15T04:38:29.962Z,45.43
2019-02-15T04:43:31.556Z,48.07
2019-02-15T04:48:33.109Z,46.57
2019-02-15T04:53:34.669Z,44.33
2019-02-15T04:58:36.292Z,41.63
2019-02-15T05:03:37.853Z,45.47
2019-02-15T05:08:39.416Z,43.60
2019-02-15T05:13:41.338Z,42.27
2019-02-15T05:18:43.061Z,33.10
2019-02-15T05:23:44.612Z,34.57
2019-02-15T05:28:46.219Z,36.43
2019-02-15T05:33:47.855Z,39.73
2019-02-15T05:38:49.499Z,40.53
2019-02-15T05:43:52.173Z,37.90
2019-02-15T05:48:53.730Z,35.87
2019-02-15T05:53:55.281Z,35.63
2019-02-15T05:58:57.209Z,38.87
2019-02-15T06:03:58.761Z,37.33
2019-02-15T06:09:00.354Z,35.97
2019-02-15T06:14:01.966Z,37.43
2019-02-15T06:19:03.567Z,37.73
2019-02-15T06:24:05.122Z,37.33
2019-02-15T06:29:06.738Z,37.97
2019-02-15T06:34:08.373Z,43.00
2019-02-15T06:39:09.932Z,42.47
2019-02-15T06:44:12.250Z,48.00
2019-02-15T06:49:13.801Z,54.43
2019-02-15T06:54:15.364Z,53.70
2019-02-15T06:59:16.924Z,60.67
2019-02-15T07:04:20.396Z,56.13
2019-02-15T07:09:21.958Z,54.17
2019-02-15T07:14:23.762Z,57.93
2019-02-15T07:19:25.541Z,62.27
2019-02-15T07:24:27.106Z,67.67
2019-02-15T07:29:28.957Z,73.20
2019-02-15T07:34:30.575Z,76.57
2019-02-15T07:39:32.208Z,85.33
2019-02-15T07:44:33.765Z,75.70
2019-02-15T07:49:35.325Z,76.23
2019-02-15T07:54:36.926Z,78.13
2019-02-15T07:59:38.589Z,78.67
2019-02-15T08:04:40.505Z,76.57
2019-02-15T08:09:42.101Z,80.37
2019-02-15T08:14:43.833Z,82.93
2019-02-15T08:19:45.562Z,89.70
2019-02-15T08:24:47.428Z,82.10
2019-02-15T08:29:48.984Z,84.10
2019-02-15T08:34:50.541Z,77.87
2019-02-15T08:39:52.142Z,74.30
2019-02-15T08:44:53.857Z,72.57
2019-02-15T08:49:55.434Z,75.77
2019-02-15T08:54:56.996Z,72.50
2019-02-15T08:59:58.560Z,65.40
2019-02-15T09:05:01.875Z,67.00
2019-02-15T09:10:10.345Z,64.07
2019-02-15T09:15:16.730Z,76.07
2019-02-15T09:20:18.460Z,68.07
2019-02-15T09:25:20.044Z,57.30
2019-02-15T09:30:21.608Z,62.43
2019-02-15T09:35:23.197Z,64.37
2019-02-15T09:40:24.815Z,64.40
2019-02-15T09:45:26.374Z,51.80
2019-02-15T09:50:27.944Z,47.13
2019-02-15T09:55:29.518Z,35.67
2019-02-15T10:00:31.078Z,35.77
2019-02-15T10:05:32.705Z,34.67
2019-02-15T10:10:34.294Z,28.60
2019-02-15T10:15:35.849Z,22.47
2019-02-15T10:20:37.546Z,25.10
2019-02-15T10:25:39.114Z,30.53
2019-02-15T10:30:40.776Z,26.47
2019-02-15T10:35:42.585Z,26.17
2019-02-15T10:40:44.187Z,22.90
2019-02-15T10:45:45.838Z,24.67
2019-02-15T10:50:47.504Z,21.73
2019-02-15T10:55:49.218Z,16.53
2019-02-15T11:00:50.770Z,18.07
2019-02-15T11:05:52.525Z,12.47
2019-02-15T11:10:54.119Z,12.33
2019-02-15T11:15:56.006Z,11.23
2019-02-15T11:20:57.664Z,9.10
2019-02-15T11:25:59.358Z,13.17
2019-02-15T11:31:00.929Z,10.63
2019-02-15T11:36:02.831Z,11.53
2019-02-15T11:41:10.975Z,14.07
2019-02-15T11:46:07.979Z,9.67
2019-02-15T11:51:09.681Z,10.07
2019-02-15T11:56:11.281Z,10.23
2019-02-15T12:01:12.850Z,9.77
2019-02-15T12:06:14.510Z,10.77
2019-02-15T12:11:16.066Z,10.07
2019-02-15T12:16:17.654Z,15.90
2019-02-15T12:21:19.421Z,11.70
2019-02-15T12:26:21.026Z,12.97
2019-02-15T12:31:22.608Z,11.57
2019-02-15T12:36:24.228Z,12.33
2019-02-15T12:41:25.783Z,12.83
2019-02-15T12:46:27.458Z,11.40
2019-02-15T12:51:32.242Z,16.10
2019-02-15T12:56:33.843Z,14.93
2019-02-15T13:01:35.511Z,15.50
2019-02-15T13:06:37.173Z,15.13
2019-02-15T13:11:39.843Z,15.77
2019-02-15T13:16:41.411Z,14.73
2019-02-15T13:21:43.030Z,15.97
2019-02-15T13:26:44.633Z,15.23
2019-02-15T13:31:46.314Z,16.13
2019-02-15T13:36:47.977Z,17.17
2019-02-15T13:41:49.717Z,16.67
2019-02-15T13:46:51.383Z,19.37
2019-02-15T13:51:52.942Z,17.60
2019-02-15T13:56:54.552Z,17.93
2019-02-15T14:01:56.232Z,16.00
2019-02-15T14:06:57.941Z,17.40
2019-02-15T14:11:59.518Z,18.17
2019-02-15T14:17:01.106Z,16.77
2019-02-15T14:22:03.943Z,18.60
2019-02-15T14:27:05.528Z,19.23
2019-02-15T14:32:07.119Z,18.73
2019-02-15T14:37:09.009Z,19.50
2019-02-15T14:42:10.586Z,20.53
2019-02-15T14:47:12.150Z,21.63
2019-02-15T14:52:13.723Z,23.00
2019-02-15T14:57:15.292Z,21.83
2019-02-15T15:02:16.904Z,22.27
2019-02-15T15:07:18.533Z,22.77
2019-02-15T15:12:21.193Z,25.07
2019-02-15T15:17:22.767Z,23.23
2019-02-15T15:22:24.417Z,27.27
2019-02-15T15:27:25.978Z,32.37
2019-02-15T15:32:27.830Z,31.10
2019-02-15T15:37:29.938Z,32.87
2019-02-15T15:42:31.568Z,30.73
2019-02-15T15:47:33.359Z,32.43
2019-02-15T15:52:35.322Z,31.63
2019-02-15T15:57:37.043Z,31.80
2019-02-15T16:02:38.611Z,34.57
2019-02-15T16:07:40.454Z,37.73
2019-02-15T16:12:42.012Z,40.27
2019-02-15T16:17:43.579Z,38.67
2019-02-15T16:22:45.203Z,38.63
2019-02-15T16:27:46.759Z,44.33
2019-02-15T16:32:48.314Z,51.27
2019-02-15T16:37:49.952Z,49.80
2019-02-15T16:42:51.571Z,53.77
2019-02-15T16:47:53.175Z,56.27
2019-02-15T16:52:54.738Z,56.27
2019-02-15T16:57:56.309Z,74.23
2019-02-15T17:02:57.896Z,77.43
2019-02-15T17:07:59.466Z,59.87
2019-02-15T17:13:01.085Z,60.47
2019-02-15T17:18:02.714Z,65.73
2019-02-15T17:23:04.395Z,56.67
2019-02-15T17:28:05.964Z,51.97
2019-02-15T17:33:07.530Z,58.83
2019-02-15T17:38:09.333Z,58.97
2019-02-15T17:43:11.759Z,62.37
2019-02-15T17:48:13.385Z,55.73
2019-02-15T17:53:14.962Z,51.70
2019-02-15T17:58:16.635Z,56.80
2019-02-15T18:03:18.203Z,56.70
2019-02-15T18:08:19.763Z,52.17
2019-02-15T18:13:21.382Z,48.47
2019-02-15T18:18:24.079Z,46.03
2019-02-15T18:23:25.807Z,46.33
2019-02-15T18:28:27.648Z,47.50
2019-02-15T18:33:29.213Z,42.97
2019-02-15T18:38:30.806Z,43.53
2019-02-15T18:43:32.375Z,56.73
2019-02-15T18:48:33.970Z,47.80
2019-02-15T18:53:35.591Z,44.67
2019-02-15T18:58:37.151Z,45.23
2019-02-15T19:03:39.126Z,44.57
2019-02-15T19:08:40.727Z,47.57
2019-02-15T19:13:42.334Z,46.23
2019-02-15T19:18:43.917Z,42.43
2019-02-15T19:23:45.729Z,41.40
2019-02-15T19:28:49.203Z,48.67
2019-02-15T19:33:50.882Z,46.37
2019-02-15T19:38:52.442Z,48.73
2019-02-15T19:43:54.252Z,37.23
2019-02-15T19:48:56.133Z,42.23
2019-02-15T19:53:58.317Z,40.13
2019-02-15T19:59:00.126Z,34.63
2019-02-15T20:04:01.725Z,39.50
2019-02-15T20:09:05.037Z,36.70
2019-02-15T20:14:08.114Z,40.47
2019-02-15T20:19:09.690Z,54.30
2019-02-15T20:24:11.418Z,51.97
2019-02-15T20:29:13.601Z,57.77
2019-02-15T20:34:15.186Z,62.47
2019-02-15T20:39:16.766Z,58.90
2019-02-15T20:44:20.456Z,59.10
2019-02-15T20:49:22.028Z,60.40
2019-02-15T20:54:23.640Z,59.97
2019-02-15T20:59:25.203Z,62.60
2019-02-15T21:04:26.764Z,62.63
2019-02-15T21:09:28.505Z,62.00
2019-02-15T21:14:30.080Z,72.90
2019-02-15T21:19:31.692Z,68.13
2019-02-15T21:24:33.341Z,54.23
2019-02-15T21:29:34.975Z,50.53
2019-02-15T21:34:36.537Z,47.70
2019-02-15T21:39:38.104Z,46.23
2019-02-15T21:44:39.681Z,44.13
2019-02-15T21:49:41.260Z,44.40
2019-02-15T21:54:42.875Z,45.53
2019-02-15T21:59:44.466Z,44.43
2019-02-15T22:04:47.130Z,45.60
2019-02-15T22:09:49.937Z,42.33
2019-02-15T22:14:51.496Z,40.30
2019-02-15T22:19:53.168Z,43.63
2019-02-15T22:24:54.825Z,45.37
2019-02-15T22:29:56.461Z,52.30
2019-02-15T22:34:58.192Z,44.80
2019-02-15T22:40:23.809Z,42.97
2019-02-15T22:45:25.382Z,36.70
2019-02-15T22:50:35.350Z,36.90
2019-02-15T22:55:30.406Z,39.60
2019-02-15T23:00:56.632Z,40.83
2019-02-15T23:05:58.701Z,38.63
2019-02-15T23:11:00.362Z,39.63
2019-02-15T23:16:02.037Z,37.03
2019-02-15T23:21:03.806Z,35.97
2019-02-15T23:26:06.588Z,34.67
2019-02-15T23:31:08.659Z,33.00
2019-02-15T23:36:10.227Z,33.40
2019-02-15T23:41:11.845Z,33.17
2019-02-15T23:46:13.438Z,31.47
2019-02-15T23:51:15.006Z,29.27
2019-02-15T23:56:16.572Z,33.00
